Tropical Cyclones
[Index]
Main Index Home Page Stock Weather Photos Extreme Storms Discussion Storm News and Storm Chasing Reports Tropical Cyclones / Hurricanes / Typhoons Weather Data and Links Wild Fires / Bushfires Weather Observation Techniques Weather Picture Catalogue Tornado Pictures and Reports Stock Video Footage and DVDs for sale
Season 1999-2000 Tropical Cyclone JOHN Track Map
Season 1999-2000 Summaries (Operational Data): [AU] [SIO] [SPAC] [SH]
<<- Previous TC | 1999-2000 Season | Next TC ->>

click for intensity scale information  Lat/long Grid: Show Hide

 Date Labels: Show Hide

Operational Tropical Cyclone Data : JTWC Advisories

Name: JOHN
Number: 0002

09 Dec 1999 04:00 UTC to 16 Dec 1999 01:00 UTC

    date/time    lat    long     hPa   cat  kts
1999-12-09 04   11.0   121.0    1004         20          
1999-12-10 04   10.5   121.5    1004         20          
1999-12-11 05   13.5   120.0    1001         25          
1999-12-11 16   13.7   119.5     997         30          
1999-12-11 22   13.9   118.6     992    1    45          
1999-12-12 03   14.3   119.3     985    2    50          
1999-12-12 10   14.8   119.3     980    2    50          
1999-12-12 16   15.3   119.2     965    3    70          
1999-12-12 22   15.9   119.0     965    3    70          
1999-12-13 04   16.6   118.5     965    3    70          
1999-12-13 10   16.9   118.4     960    3    80          
1999-12-13 16   17.5   118.1     955    4    90          
1999-12-13 22   18.0   117.9     940    4    90          
1999-12-14 04   18.6   117.5     925    4   100          
1999-12-14 10   19.3   117.3     915    5   110          
1999-12-14 16   19.8   117.3     915    5   110          
1999-12-14 22   20.4   117.5     915    5   110          
1999-12-15 04   21.2   117.8     940    4    90          
1999-12-15 10   22.0   118.4     970    3    70          
1999-12-15 16   22.5   119.0     980    2    50          
1999-12-15 22   22.8   119.6     990    1    40          
1999-12-16 01   23.0   120.5     995         25          
Winds are 10-min average.

Tropical cyclone tracks developed by Michael Bath using operational warnings and advisories and Google Maps.


[Australian Severe Weather index] [Copyright Notice] [Email Contacts] [Search This Site] [Privacy Policy]
Document: tropical_cyclone_john.htm Updated: 28 May 2013